Simmons Army Air Field
KFBG : now visible

Airfield :











YOU CAN JOIN US ON...

 
LOGIN :

Register | Disclaimer

   EN    FR    IT 

 









Legend :    VFR   Marginal VFR   IFR   Intensive IFR   Very Intensive IFR
Visi :
Ceiling :
>= 8 km
>= 3000ft
5 to 8 km
1000 to 3000 ft
1500m to 5 km
500 to 1000 ft
800 to 1500m
200 to 500 ft
< 800m
< 200 ft
Symbols :   Thunderstorms  Fog  Heavy snow  Heavy precipitations  Wind > 20 kt







- Airport Elevation : 244 ft


KFBG - Simmons Army Air Field

CURRENT METAR :
  • 212156Z AUTO 14004KT 10SM CLR 29/16 A3019 RMK AO2 SLP225 T02900162 $

EXPIRED METARs :
  • 212056Z AUTO 21003KT 10SM CLR 30/15 A3020 RMK AO2 SLP228 T02950152 57017 $
  • 211956Z AUTO 19005KT 10SM CLR 30/15 A3021 RMK AO2 SLP231 T03000153 $
  • 211946Z AUTO 15003KT 10SM CLR 30/15 A3021 RMK AO2 SLP231 $

TAF TAF KFBG
Valid from the 21 at 17:00 until the 22 at 23:00 UTC


211700Z 2117/2223 20006KT 9999 FEW055 QNH3019INS TX28/2121Z TN15/2211Z
No reported NOTAMs for that airfield.



MET'MAP, your aeronautical weather chart ! - Copyright ORBIFLY December 2007 - Disclaimer

ORBIFLY MET'MAP TEAM :

Programming & Development : Alexandra Zaïnal
Concept & Development : Baudouin d'Aumeries
Co-Development & Prog : Marc-Olivier Méhu
Technical & hardware support : Manuel Goepfert

Contact : metmap@orbifly.com




SOURCES & CREDITS :

   NOAA       Earth
Advisory